sensor_id;sensor_type;location;lat;lon;timestamp;P1;durP1;ratioP1;P2;durP2;ratioP2
22254;SDS011;11296;42.684;23.322;2022-10-13T00:02:21;15.47;;;11.40;;
22254;SDS011;11296;42.684;23.322;2022-10-13T00:19:27;15.43;;;10.03;;
22254;SDS011;11296;42.684;23.322;2022-10-13T00:26:59;15.27;;;10.53;;
22254;SDS011;11296;42.684;23.322;2022-10-13T00:33:12;17.83;;;10.37;;
22254;SDS011;11296;42.684;23.322;2022-10-13T00:51:14;14.17;;;9.40;;
22254;SDS011;11296;42.684;23.322;2022-10-13T00:53:42;15.53;;;9.87;;
22254;SDS011;11296;42.684;23.322;2022-10-13T00:56:10;18.43;;;11.30;;
22254;SDS011;11296;42.684;23.322;2022-10-13T00:58:39;16.70;;;11.20;;
22254;SDS011;11296;42.684;23.322;2022-10-13T01:01:05;18.07;;;11.43;;
22254;SDS011;11296;42.684;23.322;2022-10-13T01:08:11;16.30;;;11.97;;
22254;SDS011;11296;42.684;23.322;2022-10-13T01:14:00;16.97;;;11.00;;
22254;SDS011;11296;42.684;23.322;2022-10-13T01:16:39;17.07;;;11.70;;
22254;SDS011;11296;42.684;23.322;2022-10-13T01:22:18;17.67;;;11.33;;
22254;SDS011;11296;42.684;23.322;2022-10-13T01:30:47;18.47;;;11.37;;
22254;SDS011;11296;42.684;23.322;2022-10-13T01:33:59;20.47;;;12.00;;
22254;SDS011;11296;42.684;23.322;2022-10-13T01:43:24;17.63;;;10.90;;
22254;SDS011;11296;42.684;23.322;2022-10-13T01:47:04;19.10;;;10.77;;
22254;SDS011;11296;42.684;23.322;2022-10-13T01:49:35;17.47;;;10.70;;
22254;SDS011;11296;42.684;23.322;2022-10-13T01:52:06;17.27;;;11.47;;
22254;SDS011;11296;42.684;23.322;2022-10-13T01:58:39;19.73;;;11.87;;
22254;SDS011;11296;42.684;23.322;2022-10-13T02:01:09;19.33;;;12.43;;
22254;SDS011;11296;42.684;23.322;2022-10-13T02:14:00;16.87;;;11.63;;
22254;SDS011;11296;42.684;23.322;2022-10-13T02:16:37;17.17;;;11.47;;
22254;SDS011;11296;42.684;23.322;2022-10-13T02:19:10;17.13;;;11.17;;
22254;SDS011;11296;42.684;23.322;2022-10-13T02:21:42;19.57;;;12.03;;
22254;SDS011;11296;42.684;23.322;2022-10-13T02:24:13;18.37;;;11.83;;
22254;SDS011;11296;42.684;23.322;2022-10-13T02:26:45;18.60;;;11.33;;
22254;SDS011;11296;42.684;23.322;2022-10-13T02:29:22;17.73;;;11.77;;
22254;SDS011;11296;42.684;23.322;2022-10-13T02:31:51;18.47;;;12.10;;
22254;SDS011;11296;42.684;23.322;2022-10-13T02:34:23;17.67;;;11.43;;
22254;SDS011;11296;42.684;23.322;2022-10-13T02:40:49;20.87;;;11.90;;
22254;SDS011;11296;42.684;23.322;2022-10-13T02:43:15;20.07;;;12.13;;
22254;SDS011;11296;42.684;23.322;2022-10-13T02:45:41;19.77;;;12.33;;
22254;SDS011;11296;42.684;23.322;2022-10-13T02:48:07;21.87;;;12.57;;
22254;SDS011;11296;42.684;23.322;2022-10-13T02:50:32;20.43;;;12.77;;
22254;SDS011;11296;42.684;23.322;2022-10-13T02:52:59;18.83;;;12.30;;
22254;SDS011;11296;42.684;23.322;2022-10-13T02:55:24;20.43;;;13.93;;
22254;SDS011;11296;42.684;23.322;2022-10-13T02:57:54;24.07;;;14.90;;
22254;SDS011;11296;42.684;23.322;2022-10-13T03:00:20;21.13;;;13.93;;
22254;SDS011;11296;42.684;23.322;2022-10-13T04:49:47;34.63;;;19.00;;
22254;SDS011;11296;42.684;23.322;2022-10-13T04:52:12;28.97;;;18.93;;
22254;SDS011;11296;42.684;23.322;2022-10-13T05:00:20;34.43;;;19.97;;
22254;SDS011;11296;42.684;23.322;2022-10-13T05:02:45;32.40;;;19.97;;
22254;SDS011;11296;42.684;23.322;2022-10-13T05:05:11;34.63;;;20.63;;
22254;SDS011;11296;42.684;23.322;2022-10-13T05:07:37;29.33;;;19.53;;
22254;SDS011;11296;42.684;23.322;2022-10-13T05:10:03;34.17;;;20.37;;
22254;SDS011;11296;42.684;23.322;2022-10-13T05:12:28;32.90;;;20.77;;
22254;SDS011;11296;42.684;23.322;2022-10-13T05:14:54;34.37;;;20.43;;
22254;SDS011;11296;42.684;23.322;2022-10-13T05:17:21;36.43;;;21.97;;
22254;SDS011;11296;42.684;23.322;2022-10-13T05:19:47;33.23;;;20.47;;
22254;SDS011;11296;42.684;23.322;2022-10-13T05:22:13;34.63;;;21.70;;
22254;SDS011;11296;42.684;23.322;2022-10-13T05:24:39;37.27;;;22.77;;
22254;SDS011;11296;42.684;23.322;2022-10-13T05:27:07;39.23;;;21.73;;
22254;SDS011;11296;42.684;23.322;2022-10-13T05:29:35;36.07;;;20.83;;
22254;SDS011;11296;42.684;23.322;2022-10-13T05:32:01;37.30;;;21.90;;
22254;SDS011;11296;42.684;23.322;2022-10-13T05:34:27;34.93;;;21.73;;
22254;SDS011;11296;42.684;23.322;2022-10-13T05:36:53;38.97;;;22.40;;
22254;SDS011;11296;42.684;23.322;2022-10-13T05:39:19;39.43;;;23.63;;
22254;SDS011;11296;42.684;23.322;2022-10-13T05:41:44;42.20;;;24.07;;
22254;SDS011;11296;42.684;23.322;2022-10-13T05:44:18;40.00;;;21.93;;
22254;SDS011;11296;42.684;23.322;2022-10-13T05:47:03;57.07;;;31.97;;
22254;SDS011;11296;42.684;23.322;2022-10-13T05:49:29;100.93;;;59.67;;
22254;SDS011;11296;42.684;23.322;2022-10-13T05:51:56;41.40;;;24.40;;
22254;SDS011;11296;42.684;23.322;2022-10-13T05:54:27;38.90;;;22.10;;
22254;SDS011;11296;42.684;23.322;2022-10-13T05:59:31;38.03;;;22.10;;
22254;SDS011;11296;42.684;23.322;2022-10-13T06:02:00;37.80;;;22.50;;
22254;SDS011;11296;42.684;23.322;2022-10-13T06:04:30;46.00;;;24.13;;
22254;SDS011;11296;42.684;23.322;2022-10-13T06:07:02;42.97;;;23.77;;
22254;SDS011;11296;42.684;23.322;2022-10-13T06:09:31;40.90;;;23.23;;
22254;SDS011;11296;42.684;23.322;2022-10-13T06:11:59;39.23;;;24.73;;
22254;SDS011;11296;42.684;23.322;2022-10-13T06:14:25;39.50;;;23.73;;
22254;SDS011;11296;42.684;23.322;2022-10-13T06:16:50;44.20;;;23.90;;
22254;SDS011;11296;42.684;23.322;2022-10-13T06:19:16;39.40;;;22.90;;
22254;SDS011;11296;42.684;23.322;2022-10-13T06:21:42;36.97;;;22.93;;
22254;SDS011;11296;42.684;23.322;2022-10-13T06:24:07;40.80;;;22.97;;
22254;SDS011;11296;42.684;23.322;2022-10-13T06:26:33;39.50;;;23.37;;
22254;SDS011;11296;42.684;23.322;2022-10-13T06:28:59;38.30;;;23.07;;
22254;SDS011;11296;42.684;23.322;2022-10-13T06:31:25;39.03;;;22.90;;
22254;SDS011;11296;42.684;23.322;2022-10-13T06:33:51;37.17;;;23.00;;
22254;SDS011;11296;42.684;23.322;2022-10-13T06:36:17;37.60;;;23.17;;
22254;SDS011;11296;42.684;23.322;2022-10-13T06:38:42;37.53;;;21.80;;
22254;SDS011;11296;42.684;23.322;2022-10-13T06:41:08;39.53;;;22.70;;
22254;SDS011;11296;42.684;23.322;2022-10-13T06:43:39;38.03;;;22.20;;
22254;SDS011;11296;42.684;23.322;2022-10-13T06:46:08;39.13;;;23.43;;
22254;SDS011;11296;42.684;23.322;2022-10-13T06:48:34;35.00;;;21.07;;
22254;SDS011;11296;42.684;23.322;2022-10-13T06:51:01;41.27;;;23.17;;
22254;SDS011;11296;42.684;23.322;2022-10-13T06:53:29;40.40;;;23.53;;
22254;SDS011;11296;42.684;23.322;2022-10-13T06:56:02;36.63;;;22.80;;
22254;SDS011;11296;42.684;23.322;2022-10-13T06:58:29;37.80;;;22.60;;
22254;SDS011;11296;42.684;23.322;2022-10-13T07:00:55;36.47;;;23.07;;
22254;SDS011;11296;42.684;23.322;2022-10-13T07:03:22;36.93;;;23.73;;
22254;SDS011;11296;42.684;23.322;2022-10-13T07:05:50;37.27;;;24.23;;
22254;SDS011;11296;42.684;23.322;2022-10-13T07:08:16;35.47;;;22.77;;
22254;SDS011;11296;42.684;23.322;2022-10-13T07:10:42;36.17;;;22.67;;
22254;SDS011;11296;42.684;23.322;2022-10-13T07:13:08;38.10;;;22.43;;
22254;SDS011;11296;42.684;23.322;2022-10-13T07:15:36;35.00;;;23.03;;
22254;SDS011;11296;42.684;23.322;2022-10-13T07:18:05;34.37;;;22.10;;
22254;SDS011;11296;42.684;23.322;2022-10-13T07:20:31;36.20;;;22.80;;
22254;SDS011;11296;42.684;23.322;2022-10-13T07:22:57;37.67;;;23.10;;
22254;SDS011;11296;42.684;23.322;2022-10-13T07:25:23;39.50;;;23.97;;
22254;SDS011;11296;42.684;23.322;2022-10-13T07:30:34;51.17;;;32.30;;
22254;SDS011;11296;42.684;23.322;2022-10-13T07:33:00;38.83;;;23.03;;
22254;SDS011;11296;42.684;23.322;2022-10-13T07:35:26;38.47;;;23.17;;
22254;SDS011;11296;42.684;23.322;2022-10-13T08:10:44;32.27;;;21.17;;
22254;SDS011;11296;42.684;23.322;2022-10-13T08:45:43;35.37;;;22.57;;
22254;SDS011;11296;42.684;23.322;2022-10-13T08:52:03;35.03;;;23.03;;
22254;SDS011;11296;42.684;23.322;2022-10-13T08:54:30;33.77;;;23.30;;
22254;SDS011;11296;42.684;23.322;2022-10-13T08:56:56;38.73;;;23.10;;
22254;SDS011;11296;42.684;23.322;2022-10-13T08:59:22;31.07;;;22.60;;
22254;SDS011;11296;42.684;23.322;2022-10-13T09:01:48;36.17;;;22.90;;
22254;SDS011;11296;42.684;23.322;2022-10-13T09:04:28;36.50;;;24.20;;
22254;SDS011;11296;42.684;23.322;2022-10-13T09:07:01;32.27;;;22.27;;
22254;SDS011;11296;42.684;23.322;2022-10-13T09:10:47;32.23;;;23.83;;
22254;SDS011;11296;42.684;23.322;2022-10-13T09:13:20;36.43;;;23.93;;
22254;SDS011;11296;42.684;23.322;2022-10-13T09:15:46;28.63;;;22.00;;
22254;SDS011;11296;42.684;23.322;2022-10-13T09:18:16;27.90;;;21.40;;
22254;SDS011;11296;42.684;23.322;2022-10-13T09:23:35;34.60;;;26.93;;
22254;SDS011;11296;42.684;23.322;2022-10-13T09:26:05;34.40;;;24.80;;
22254;SDS011;11296;42.684;23.322;2022-10-13T09:28:33;32.70;;;22.10;;
22254;SDS011;11296;42.684;23.322;2022-10-13T09:31:12;25.60;;;19.83;;
22254;SDS011;11296;42.684;23.322;2022-10-13T09:33:41;25.15;;;19.65;;
22254;SDS011;11296;42.684;23.322;2022-10-13T09:36:08;26.92;;;19.38;;
22254;SDS011;11296;42.684;23.322;2022-10-13T09:38:40;24.17;;;18.67;;
22254;SDS011;11296;42.684;23.322;2022-10-13T09:56:56;23.25;;;17.83;;
22254;SDS011;11296;42.684;23.322;2022-10-13T09:59:34;22.38;;;16.38;;
22254;SDS011;11296;42.684;23.322;2022-10-13T10:02:25;22.83;;;17.48;;
22254;SDS011;11296;42.684;23.322;2022-10-13T10:04:53;19.42;;;15.75;;
22254;SDS011;11296;42.684;23.322;2022-10-13T10:07:24;19.23;;;16.27;;
22254;SDS011;11296;42.684;23.322;2022-10-13T10:09:58;18.48;;;15.68;;
22254;SDS011;11296;42.684;23.322;2022-10-13T10:12:29;19.20;;;14.93;;
22254;SDS011;11296;42.684;23.322;2022-10-13T10:15:08;19.90;;;15.07;;
22254;SDS011;11296;42.684;23.322;2022-10-13T10:17:50;19.67;;;15.10;;
22254;SDS011;11296;42.684;23.322;2022-10-13T10:23:50;16.35;;;13.05;;
22254;SDS011;11296;42.684;23.322;2022-10-13T10:34:54;16.05;;;12.38;;
22254;SDS011;11296;42.684;23.322;2022-10-13T10:41:12;16.95;;;13.77;;
22254;SDS011;11296;42.684;23.322;2022-10-13T10:49:05;17.42;;;14.30;;
22254;SDS011;11296;42.684;23.322;2022-10-13T10:51:38;14.57;;;12.05;;
22254;SDS011;11296;42.684;23.322;2022-10-13T10:54:39;13.65;;;11.85;;
22254;SDS011;11296;42.684;23.322;2022-10-13T11:05:20;15.05;;;11.70;;
22254;SDS011;11296;42.684;23.322;2022-10-13T11:19:30;13.55;;;11.40;;
22254;SDS011;11296;42.684;23.322;2022-10-13T11:37:25;11.48;;;9.52;;
22254;SDS011;11296;42.684;23.322;2022-10-13T11:40:13;11.57;;;9.90;;
22254;SDS011;11296;42.684;23.322;2022-10-13T13:27:31;13.55;;;8.70;;
22254;SDS011;11296;42.684;23.322;2022-10-13T13:30:00;10.23;;;8.40;;
22254;SDS011;11296;42.684;23.322;2022-10-13T13:32:28;11.60;;;7.95;;
22254;SDS011;11296;42.684;23.322;2022-10-13T13:38:48;11.73;;;8.13;;
22254;SDS011;11296;42.684;23.322;2022-10-13T13:41:15;12.80;;;8.33;;
22254;SDS011;11296;42.684;23.322;2022-10-13T13:43:43;11.10;;;8.13;;
22254;SDS011;11296;42.684;23.322;2022-10-13T13:46:11;9.97;;;8.20;;
22254;SDS011;11296;42.684;23.322;2022-10-13T13:48:47;11.23;;;8.20;;
22254;SDS011;11296;42.684;23.322;2022-10-13T13:51:14;13.37;;;8.60;;
22254;SDS011;11296;42.684;23.322;2022-10-13T13:53:42;12.47;;;8.20;;
22254;SDS011;11296;42.684;23.322;2022-10-13T13:56:12;12.90;;;8.50;;
22254;SDS011;11296;42.684;23.322;2022-10-13T13:58:39;11.57;;;8.37;;
22254;SDS011;11296;42.684;23.322;2022-10-13T14:03:56;13.33;;;8.27;;
22254;SDS011;11296;42.684;23.322;2022-10-13T14:06:22;11.43;;;8.60;;
22254;SDS011;11296;42.684;23.322;2022-10-13T14:08:47;14.80;;;8.67;;
22254;SDS011;11296;42.684;23.322;2022-10-13T14:11:14;11.00;;;7.93;;
22254;SDS011;11296;42.684;23.322;2022-10-13T14:13:39;13.70;;;8.47;;
22254;SDS011;11296;42.684;23.322;2022-10-13T14:16:05;10.23;;;8.53;;
22254;SDS011;11296;42.684;23.322;2022-10-13T14:18:31;48.37;;;36.30;;
22254;SDS011;11296;42.684;23.322;2022-10-13T14:20:57;12.63;;;8.73;;
22254;SDS011;11296;42.684;23.322;2022-10-13T14:23:24;15.40;;;9.57;;
22254;SDS011;11296;42.684;23.322;2022-10-13T14:25:50;13.37;;;8.03;;
22254;SDS011;11296;42.684;23.322;2022-10-13T14:28:28;9.70;;;7.27;;
22254;SDS011;11296;42.684;23.322;2022-10-13T14:34:52;10.00;;;6.97;;
22254;SDS011;11296;42.684;23.322;2022-10-13T14:44:00;52.30;;;34.57;;
22254;SDS011;11296;42.684;23.322;2022-10-13T14:46:26;81.20;;;54.50;;
22254;SDS011;11296;42.684;23.322;2022-10-13T14:49:05;20.83;;;15.03;;
22254;SDS011;11296;42.684;23.322;2022-10-13T15:03:26;12.43;;;6.47;;
22254;SDS011;11296;42.684;23.322;2022-10-13T15:05:52;7.40;;;6.17;;
22254;SDS011;11296;42.684;23.322;2022-10-13T15:08:21;8.13;;;6.30;;
22254;SDS011;11296;42.684;23.322;2022-10-13T15:10:47;10.73;;;6.87;;
22254;SDS011;11296;42.684;23.322;2022-10-13T15:13:16;10.20;;;7.07;;
22254;SDS011;11296;42.684;23.322;2022-10-13T15:15:47;8.73;;;6.80;;
22254;SDS011;11296;42.684;23.322;2022-10-13T15:18:13;10.93;;;6.57;;
22254;SDS011;11296;42.684;23.322;2022-10-13T15:20:43;9.07;;;6.73;;
22254;SDS011;11296;42.684;23.322;2022-10-13T15:23:12;8.80;;;6.63;;
22254;SDS011;11296;42.684;23.322;2022-10-13T15:25:39;7.93;;;6.67;;
22254;SDS011;11296;42.684;23.322;2022-10-13T15:28:16;10.13;;;6.57;;
22254;SDS011;11296;42.684;23.322;2022-10-13T15:30:42;10.90;;;6.67;;
22254;SDS011;11296;42.684;23.322;2022-10-13T15:33:08;9.87;;;6.00;;
22254;SDS011;11296;42.684;23.322;2022-10-13T15:35:34;10.10;;;6.53;;
22254;SDS011;11296;42.684;23.322;2022-10-13T15:37:59;11.20;;;6.40;;
22254;SDS011;11296;42.684;23.322;2022-10-13T15:40:25;9.00;;;6.37;;
22254;SDS011;11296;42.684;23.322;2022-10-13T15:42:51;10.77;;;6.53;;
22254;SDS011;11296;42.684;23.322;2022-10-13T15:45:17;7.37;;;6.50;;
22254;SDS011;11296;42.684;23.322;2022-10-13T15:47:42;6.87;;;5.90;;
22254;SDS011;11296;42.684;23.322;2022-10-13T15:50:08;8.07;;;6.07;;
22254;SDS011;11296;42.684;23.322;2022-10-13T15:52:40;10.57;;;6.10;;
22254;SDS011;11296;42.684;23.322;2022-10-13T15:55:06;8.60;;;6.33;;
22254;SDS011;11296;42.684;23.322;2022-10-13T15:57:33;7.17;;;6.33;;
22254;SDS011;11296;42.684;23.322;2022-10-13T15:59:59;10.13;;;6.33;;
22254;SDS011;11296;42.684;23.322;2022-10-13T16:02:25;8.97;;;6.20;;
22254;SDS011;11296;42.684;23.322;2022-10-13T16:04:51;7.20;;;5.77;;
22254;SDS011;11296;42.684;23.322;2022-10-13T16:07:16;9.13;;;5.87;;
22254;SDS011;11296;42.684;23.322;2022-10-13T16:09:45;7.43;;;5.47;;
22254;SDS011;11296;42.684;23.322;2022-10-13T16:12:11;7.07;;;5.57;;
22254;SDS011;11296;42.684;23.322;2022-10-13T16:14:36;10.17;;;5.50;;
22254;SDS011;11296;42.684;23.322;2022-10-13T16:17:05;10.47;;;5.60;;
22254;SDS011;11296;42.684;23.322;2022-10-13T16:19:31;5.90;;;5.30;;
22254;SDS011;11296;42.684;23.322;2022-10-13T16:28:53;32.33;;;22.00;;
22254;SDS011;11296;42.684;23.322;2022-10-13T16:35:22;9.73;;;6.13;;
22254;SDS011;11296;42.684;23.322;2022-10-13T16:37:59;6.73;;;5.90;;
22254;SDS011;11296;42.684;23.322;2022-10-13T16:40:25;10.80;;;6.30;;
22254;SDS011;11296;42.684;23.322;2022-10-13T16:42:51;8.90;;;6.30;;
22254;SDS011;11296;42.684;23.322;2022-10-13T16:45:17;8.93;;;6.03;;
22254;SDS011;11296;42.684;23.322;2022-10-13T16:47:43;11.17;;;7.73;;
22254;SDS011;11296;42.684;23.322;2022-10-13T16:50:09;9.93;;;6.40;;
22254;SDS011;11296;42.684;23.322;2022-10-13T16:52:37;10.17;;;6.87;;
22254;SDS011;11296;42.684;23.322;2022-10-13T16:55:03;12.77;;;7.27;;
22254;SDS011;11296;42.684;23.322;2022-10-13T16:57:30;11.47;;;7.70;;
22254;SDS011;11296;42.684;23.322;2022-10-13T16:59:56;11.70;;;8.03;;
22254;SDS011;11296;42.684;23.322;2022-10-13T17:06:26;11.57;;;6.43;;
22254;SDS011;11296;42.684;23.322;2022-10-13T17:21:02;10.07;;;6.20;;
22254;SDS011;11296;42.684;23.322;2022-10-13T17:27:25;12.67;;;6.50;;
22254;SDS011;11296;42.684;23.322;2022-10-13T17:33:45;8.97;;;5.83;;
22254;SDS011;11296;42.684;23.322;2022-10-13T17:36:14;9.57;;;6.90;;
22254;SDS011;11296;42.684;23.322;2022-10-13T17:38:46;10.17;;;7.10;;
22254;SDS011;11296;42.684;23.322;2022-10-13T17:41:15;13.47;;;6.97;;
22254;SDS011;11296;42.684;23.322;2022-10-13T17:43:49;28.43;;;19.77;;
22254;SDS011;11296;42.684;23.322;2022-10-13T17:48:42;9.77;;;7.93;;
22254;SDS011;11296;42.684;23.322;2022-10-13T17:51:10;12.30;;;7.70;;
22254;SDS011;11296;42.684;23.322;2022-10-13T17:53:39;10.53;;;7.57;;
22254;SDS011;11296;42.684;23.322;2022-10-13T17:56:11;14.93;;;7.50;;
22254;SDS011;11296;42.684;23.322;2022-10-13T17:58:41;11.33;;;7.93;;
22254;SDS011;11296;42.684;23.322;2022-10-13T18:01:27;12.67;;;7.37;;
22254;SDS011;11296;42.684;23.322;2022-10-13T18:04:05;13.27;;;7.80;;
22254;SDS011;11296;42.684;23.322;2022-10-13T18:06:43;11.10;;;8.20;;
22254;SDS011;11296;42.684;23.322;2022-10-13T18:09:14;14.40;;;8.77;;
22254;SDS011;11296;42.684;23.322;2022-10-13T18:11:43;11.10;;;7.70;;
22254;SDS011;11296;42.684;23.322;2022-10-13T18:14:09;10.00;;;7.27;;
22254;SDS011;11296;42.684;23.322;2022-10-13T18:16:38;11.03;;;8.00;;
22254;SDS011;11296;42.684;23.322;2022-10-13T18:19:08;10.20;;;7.80;;
22254;SDS011;11296;42.684;23.322;2022-10-13T18:21:35;12.37;;;8.07;;
22254;SDS011;11296;42.684;23.322;2022-10-13T18:24:01;9.87;;;7.70;;
22254;SDS011;11296;42.684;23.322;2022-10-13T18:26:28;13.47;;;7.87;;
22254;SDS011;11296;42.684;23.322;2022-10-13T18:28:56;9.93;;;7.40;;
22254;SDS011;11296;42.684;23.322;2022-10-13T18:31:23;12.43;;;8.07;;
22254;SDS011;11296;42.684;23.322;2022-10-13T18:33:56;12.30;;;8.57;;
22254;SDS011;11296;42.684;23.322;2022-10-13T18:36:29;13.60;;;7.97;;
22254;SDS011;11296;42.684;23.322;2022-10-13T18:39:11;15.37;;;11.77;;
22254;SDS011;11296;42.684;23.322;2022-10-13T18:41:43;16.97;;;11.10;;
22254;SDS011;11296;42.684;23.322;2022-10-13T18:44:09;30.23;;;22.67;;
22254;SDS011;11296;42.684;23.322;2022-10-13T18:46:35;11.23;;;8.00;;
22254;SDS011;11296;42.684;23.322;2022-10-13T18:49:03;11.63;;;8.70;;
22254;SDS011;11296;42.684;23.322;2022-10-13T18:51:29;10.03;;;7.57;;
22254;SDS011;11296;42.684;23.322;2022-10-13T18:53:58;12.93;;;8.23;;
22254;SDS011;11296;42.684;23.322;2022-10-13T18:56:25;11.83;;;8.37;;
22254;SDS011;11296;42.684;23.322;2022-10-13T18:58:53;11.63;;;8.47;;
22254;SDS011;11296;42.684;23.322;2022-10-13T19:01:21;8.80;;;7.90;;
22254;SDS011;11296;42.684;23.322;2022-10-13T19:03:48;10.23;;;7.90;;
22254;SDS011;11296;42.684;23.322;2022-10-13T19:06:16;12.23;;;7.90;;
22254;SDS011;11296;42.684;23.322;2022-10-13T19:08:49;14.47;;;9.07;;
22254;SDS011;11296;42.684;23.322;2022-10-13T19:11:16;12.03;;;8.50;;
22254;SDS011;11296;42.684;23.322;2022-10-13T19:13:44;10.23;;;8.40;;
22254;SDS011;11296;42.684;23.322;2022-10-13T19:16:11;10.70;;;8.23;;
22254;SDS011;11296;42.684;23.322;2022-10-13T19:18:39;14.77;;;8.70;;
22254;SDS011;11296;42.684;23.322;2022-10-13T19:21:05;10.90;;;9.70;;
22254;SDS011;11296;42.684;23.322;2022-10-13T19:23:30;11.13;;;8.40;;
22254;SDS011;11296;42.684;23.322;2022-10-13T19:26:04;9.80;;;8.20;;
22254;SDS011;11296;42.684;23.322;2022-10-13T19:28:32;12.43;;;8.67;;
22254;SDS011;11296;42.684;23.322;2022-10-13T19:31:06;10.90;;;7.80;;
22254;SDS011;11296;42.684;23.322;2022-10-13T19:33:36;10.33;;;8.03;;
22254;SDS011;11296;42.684;23.322;2022-10-13T19:36:03;10.27;;;8.20;;
22254;SDS011;11296;42.684;23.322;2022-10-13T19:38:29;8.53;;;7.43;;
22254;SDS011;11296;42.684;23.322;2022-10-13T19:40:54;11.13;;;7.50;;
22254;SDS011;11296;42.684;23.322;2022-10-13T19:43:26;11.60;;;7.97;;
22254;SDS011;11296;42.684;23.322;2022-10-13T19:45:52;10.50;;;8.00;;
22254;SDS011;11296;42.684;23.322;2022-10-13T19:48:23;11.10;;;8.10;;
22254;SDS011;11296;42.684;23.322;2022-10-13T19:50:49;11.43;;;7.77;;
22254;SDS011;11296;42.684;23.322;2022-10-13T19:53:16;11.50;;;8.40;;
22254;SDS011;11296;42.684;23.322;2022-10-13T19:55:43;10.33;;;8.17;;
22254;SDS011;11296;42.684;23.322;2022-10-13T19:58:11;9.77;;;8.17;;
22254;SDS011;11296;42.684;23.322;2022-10-13T20:00:40;13.20;;;7.70;;
22254;SDS011;11296;42.684;23.322;2022-10-13T20:03:09;11.60;;;7.77;;
22254;SDS011;11296;42.684;23.322;2022-10-13T20:05:37;12.77;;;8.17;;
22254;SDS011;11296;42.684;23.322;2022-10-13T20:08:04;12.60;;;8.20;;
22254;SDS011;11296;42.684;23.322;2022-10-13T20:10:31;12.50;;;8.83;;
22254;SDS011;11296;42.684;23.322;2022-10-13T20:12:58;11.73;;;8.20;;
22254;SDS011;11296;42.684;23.322;2022-10-13T20:15:27;10.73;;;7.60;;
22254;SDS011;11296;42.684;23.322;2022-10-13T20:18:00;14.43;;;8.00;;
22254;SDS011;11296;42.684;23.322;2022-10-13T20:20:35;11.20;;;7.97;;
22254;SDS011;11296;42.684;23.322;2022-10-13T20:23:10;9.40;;;7.90;;
22254;SDS011;11296;42.684;23.322;2022-10-13T20:25:41;10.73;;;8.17;;
22254;SDS011;11296;42.684;23.322;2022-10-13T20:28:07;14.63;;;7.90;;
22254;SDS011;11296;42.684;23.322;2022-10-13T20:30:33;10.10;;;7.73;;
22254;SDS011;11296;42.684;23.322;2022-10-13T20:33:10;9.00;;;7.37;;
22254;SDS011;11296;42.684;23.322;2022-10-13T20:35:51;10.23;;;7.57;;
22254;SDS011;11296;42.684;23.322;2022-10-13T20:39:22;10.10;;;7.37;;
22254;SDS011;11296;42.684;23.322;2022-10-13T20:41:48;11.17;;;7.50;;
22254;SDS011;11296;42.684;23.322;2022-10-13T20:44:15;8.77;;;7.37;;
22254;SDS011;11296;42.684;23.322;2022-10-13T20:46:59;13.00;;;7.87;;
22254;SDS011;11296;42.684;23.322;2022-10-13T20:49:29;8.50;;;7.30;;
22254;SDS011;11296;42.684;23.322;2022-10-13T20:52:18;12.47;;;8.27;;
22254;SDS011;11296;42.684;23.322;2022-10-13T20:54:46;12.67;;;8.00;;
22254;SDS011;11296;42.684;23.322;2022-10-13T20:57:12;12.87;;;8.40;;
22254;SDS011;11296;42.684;23.322;2022-10-13T20:59:38;11.63;;;8.07;;
22254;SDS011;11296;42.684;23.322;2022-10-13T21:02:04;12.07;;;8.60;;
22254;SDS011;11296;42.684;23.322;2022-10-13T21:04:30;11.77;;;7.93;;
22254;SDS011;11296;42.684;23.322;2022-10-13T21:06:57;13.33;;;8.70;;
22254;SDS011;11296;42.684;23.322;2022-10-13T21:09:23;12.07;;;8.37;;
22254;SDS011;11296;42.684;23.322;2022-10-13T21:11:48;11.60;;;8.40;;
22254;SDS011;11296;42.684;23.322;2022-10-13T21:14:14;10.77;;;8.20;;
22254;SDS011;11296;42.684;23.322;2022-10-13T21:16:44;10.07;;;8.90;;
22254;SDS011;11296;42.684;23.322;2022-10-13T21:19:11;15.27;;;8.90;;
22254;SDS011;11296;42.684;23.322;2022-10-13T21:21:37;11.43;;;8.83;;
22254;SDS011;11296;42.684;23.322;2022-10-13T21:24:03;13.07;;;8.63;;
22254;SDS011;11296;42.684;23.322;2022-10-13T21:26:31;11.23;;;8.33;;
22254;SDS011;11296;42.684;23.322;2022-10-13T21:28:57;12.07;;;7.87;;
22254;SDS011;11296;42.684;23.322;2022-10-13T21:31:24;11.73;;;8.43;;
22254;SDS011;11296;42.684;23.322;2022-10-13T22:45:47;11.47;;;6.53;;
22254;SDS011;11296;42.684;23.322;2022-10-13T22:48:14;9.80;;;6.93;;
22254;SDS011;11296;42.684;23.322;2022-10-13T22:50:39;9.00;;;6.53;;
22254;SDS011;11296;42.684;23.322;2022-10-13T22:53:05;7.90;;;6.00;;
22254;SDS011;11296;42.684;23.322;2022-10-13T22:55:31;8.57;;;6.07;;
22254;SDS011;11296;42.684;23.322;2022-10-13T22:57:58;6.87;;;6.00;;
22254;SDS011;11296;42.684;23.322;2022-10-13T23:00:24;9.13;;;5.80;;
22254;SDS011;11296;42.684;23.322;2022-10-13T23:02:50;11.00;;;6.17;;
22254;SDS011;11296;42.684;23.322;2022-10-13T23:05:16;9.10;;;5.73;;
22254;SDS011;11296;42.684;23.322;2022-10-13T23:07:41;7.37;;;5.70;;
22254;SDS011;11296;42.684;23.322;2022-10-13T23:10:07;7.60;;;5.70;;
22254;SDS011;11296;42.684;23.322;2022-10-13T23:12:34;9.53;;;6.13;;
22254;SDS011;11296;42.684;23.322;2022-10-13T23:15:00;9.73;;;5.90;;
22254;SDS011;11296;42.684;23.322;2022-10-13T23:17:25;10.27;;;5.67;;
22254;SDS011;11296;42.684;23.322;2022-10-13T23:19:53;6.40;;;5.40;;
22254;SDS011;11296;42.684;23.322;2022-10-13T23:22:18;8.47;;;5.47;;
22254;SDS011;11296;42.684;23.322;2022-10-13T23:24:45;6.43;;;4.97;;
22254;SDS011;11296;42.684;23.322;2022-10-13T23:27:11;7.27;;;5.37;;
22254;SDS011;11296;42.684;23.322;2022-10-13T23:29:36;8.07;;;4.80;;
22254;SDS011;11296;42.684;23.322;2022-10-13T23:32:02;7.10;;;5.23;;
22254;SDS011;11296;42.684;23.322;2022-10-13T23:34:28;8.20;;;5.10;;
22254;SDS011;11296;42.684;23.322;2022-10-13T23:36:53;8.53;;;4.30;;
22254;SDS011;11296;42.684;23.322;2022-10-13T23:39:19;4.80;;;3.97;;
22254;SDS011;11296;42.684;23.322;2022-10-13T23:41:45;5.10;;;4.10;;
22254;SDS011;11296;42.684;23.322;2022-10-13T23:44:11;5.23;;;4.00;;
22254;SDS011;11296;42.684;23.322;2022-10-13T23:46:37;6.87;;;4.10;;
22254;SDS011;11296;42.684;23.322;2022-10-13T23:49:04;10.53;;;4.07;;
22254;SDS011;11296;42.684;23.322;2022-10-13T23:51:30;6.53;;;3.83;;
22254;SDS011;11296;42.684;23.322;2022-10-13T23:53:56;6.50;;;3.70;;
22254;SDS011;11296;42.684;23.322;2022-10-13T23:56:22;4.80;;;3.90;;
22254;SDS011;11296;42.684;23.322;2022-10-13T23:58:48;6.87;;;4.13;;
